Kakariki — ZMKA — position and weather

sailwx.info

Track history (hours):
 
Tides and Currents Weather Stations Pressure Air Temp Water Temp Dewpoint Dewpoint Depression Visibility Wind Speed Wind Dir Waves Ship Positions

Kakariki

Last reported at 2017-Sep-26 00:00 UTC. Time now 2017-Sep-26 05:59 UTC.
Position S 43°06' E 174°00'.

Length 183 m; beam 32 m; draft 11 m.

Type: Ship (hazmat cat A). MMSI: 512000050.

Wind from 060 at 15 knots

Barometer 996.1 mb
Air temperature 14.9 ° C
Visibility: greater than 10.8 NM
Dewpoint 12.9 ° C

Date/timePositionNaut miles runAvg speedWind from/ knotsBaromVisibWave heightAir tempDewpointWater temp
2017-Sep-26 00:00S 43°06' E 174°00'6911.6 060 / 15996.110.8 14.912.9
2017-Sep-25 18:00S 44°00' E 173°00'8213.6 050 / 25994.327.0 14.511.7
2017-Sep-25 12:00S 45°00' E 171°42'71 9.9 340 / 17996.610.8 15.4 4.5
2017-Sep-25 04:49S 45°52' E 170°34'2 5.7
2017-Sep-25 04:29S 45°53' E 170°31'0 0.1
2017-Sep-25 03:59S 45°52' E 170°31'0 0.0
2017-Sep-25 03:29S 45°52' E 170°31'0 0.0
2017-Sep-25 02:58S 45°52' E 170°31'0 0.0
2017-Sep-25 02:28S 45°52' E 170°31'0 0.0
2017-Sep-25 01:58S 45°52' E 170°31'0 0.0
2017-Sep-25 01:28S 45°52' E 170°31'0 0.0
2017-Sep-25 00:58S 45°52' E 170°31'0 0.0
2017-Sep-25 00:30S 45°52' E 170°31'0 0.0
2017-Sep-25 00:00S 45°52' E 170°31'0 0.0
2017-Sep-23 19:42S 45°52' E 170°31'15411.2
2017-Sep-23 06:00S 44°00' E 173°00'   030 / 161008.527.0 12.510.6
2017-Sep-21 00:00S 41°06' E 176°12'6811.3 020 / 181008.710.8 15.013.2
2017-Sep-20 18:00S 40°12' E 177°06'6811.4 040 / 151010.110.8 13.010.1
2017-Sep-20 12:00S 39°18' E 178°00'7011.7 030 / 211011.627.0 12.511.6
2017-Sep-20 06:00S 38°12' E 178°30'50 8.3 200 / 101010.627.0 15.011.3
2017-Sep-20 00:00S 37°24' E 178°12'7111.9 130 / 31011.827.0 16.010.3
2017-Sep-19 18:00S 36°42' E 177°00'7211.9 180 / 101011.227.0 13.510.6
2017-Sep-19 12:00S 36°00' E 175°48'846.6 220 / 151011.327.0 13.5
2017-Sep-19 11:49S 36°07' E 175°51'511.8
2017-Sep-19 11:24S 36°05' E 175°46'511.9
2017-Sep-19 11:00S 36°02' E 175°41'911.9
2017-Sep-19 10:14S 35°57' E 175°32'511.7
2017-Sep-19 09:47S 35°54' E 175°26'3211.1
2017-Sep-19 06:56S 35°47' E 174°48'510.9
2017-Sep-19 06:28S 35°49' E 174°43'711.6
2017-Sep-19 05:50S 35°54' E 174°36'3 8.8
2017-Sep-19 05:30S 35°53' E 174°33'4 0.5
2017-Sep-18 22:14S 35°50' E 174°30'0 0.0
2017-Sep-17 18:00S 35°50' E 174°30'3 5.4
2017-Sep-17 17:30S 35°52' E 174°32'4 6.8
2017-Sep-17 16:59S 35°55' E 174°35'13 7.0
2017-Sep-17 15:05S 36°06' E 174°45'1 6.6
2017-Sep-17 14:57S 36°06' E 174°46'1 1.3
2017-Sep-17 14:29S 36°06' E 174°45'10 8.7
2017-Sep-17 13:22S 36°14' E 174°52'3 8.8
2017-Sep-17 13:00S 36°17' E 174°54'4 9.0
2017-Sep-17 12:30S 36°21' E 174°57'4 8.7
2017-Sep-17 12:00S 36°24' E 175°00'5 9.4
2017-Sep-17 11:30S 36°29' E 175°01'5 9.4
2017-Sep-17 11:00S 36°34' E 175°00'5 9.8
2017-Sep-17 10:30S 36°37' E 174°57'5 9.8
2017-Sep-17 10:00S 36°42' E 174°54'510.0
2017-Sep-17 09:30S 36°45' E 174°49'3 6.2
2017-Sep-17 09:00S 36°48' E 174°49'3 6.8
2017-Sep-17 08:30S 36°50' E 174°46'0 0.3
2017-Sep-17 08:00S 36°50' E 174°46'0 0.0
2017-Sep-16 19:58S 36°50' E 174°46'1 2.1
2017-Sep-16 19:30S 36°50' E 174°47'3 5.9
2017-Sep-16 19:00S 36°48' E 174°49'5 9.4
2017-Sep-16 18:30S 36°44' E 174°51'4 8.6
2017-Sep-16 18:00S 36°40' E 174°54'510.2
2017-Sep-16 17:30S 36°36' E 174°59'510.2
2017-Sep-16 17:00S 36°33' E 175°03'510.3
2017-Sep-16 16:30S 36°29' E 175°08'510.2
2017-Sep-16 16:00S 36°26' E 175°12'510.2
2017-Sep-16 15:30S 36°22' E 175°17'1910.4
2017-Sep-16 13:38S 36°27' E 175°40'511.8
2017-Sep-16 13:12S 36°29' E 175°46'211.9
2017-Sep-16 13:00S 36°29' E 175°49'7310.4
2017-Sep-16 06:00S 37°00' E 177°12'6510.8 290 / 251010.727.0 15.012.3
2017-Sep-16 00:00S 37°30' E 178°24'   300 / 451006.827.0 16.014.3
Track history (hours):
 
Tides and Currents Weather Stations Pressure Air Temp Water Temp Dewpoint Dewpoint Depression Visibility Wind Speed Wind Dir Waves Ship Positions

Kakariki

Last reported at 2017-Sep-26 00:00 UTC. Time now 2017-Sep-26 05:59 UTC.
Position S 43°06' E 174°00'.

Length 183 m; beam 32 m; draft 11 m.

Type: Ship (hazmat cat A). MMSI: 512000050.

Wind from 060 at 15 knots

Barometer 996.1 mb
Air temperature 14.9 ° C
Visibility: greater than 10.8 NM
Dewpoint 12.9 ° C

Date/timePositionNaut miles runAvg speedWind from/ knotsBaromVisibWave heightAir tempDewpointWater temp
2017-Sep-26 00:00S 43°06' E 174°00'6911.6 060 / 15996.110.8 14.912.9
2017-Sep-25 18:00S 44°00' E 173°00'8213.6 050 / 25994.327.0 14.511.7
2017-Sep-25 12:00S 45°00' E 171°42'71 9.9 340 / 17996.610.8 15.4 4.5
2017-Sep-25 04:49S 45°52' E 170°34'2 5.7
2017-Sep-25 04:29S 45°53' E 170°31'0 0.1
2017-Sep-25 03:59S 45°52' E 170°31'0 0.0
2017-Sep-25 03:29S 45°52' E 170°31'0 0.0
2017-Sep-25 02:58S 45°52' E 170°31'0 0.0
2017-Sep-25 02:28S 45°52' E 170°31'0 0.0
2017-Sep-25 01:58S 45°52' E 170°31'0 0.0
2017-Sep-25 01:28S 45°52' E 170°31'0 0.0
2017-Sep-25 00:58S 45°52' E 170°31'0 0.0
2017-Sep-25 00:30S 45°52' E 170°31'0 0.0
2017-Sep-25 00:00S 45°52' E 170°31'0 0.0
2017-Sep-23 19:42S 45°52' E 170°31'15411.2
2017-Sep-23 06:00S 44°00' E 173°00'   030 / 161008.527.0 12.510.6
2017-Sep-21 00:00S 41°06' E 176°12'6811.3 020 / 181008.710.8 15.013.2
2017-Sep-20 18:00S 40°12' E 177°06'6811.4 040 / 151010.110.8 13.010.1
2017-Sep-20 12:00S 39°18' E 178°00'7011.7 030 / 211011.627.0 12.511.6
2017-Sep-20 06:00S 38°12' E 178°30'50 8.3 200 / 101010.627.0 15.011.3
2017-Sep-20 00:00S 37°24' E 178°12'7111.9 130 / 31011.827.0 16.010.3
2017-Sep-19 18:00S 36°42' E 177°00'7211.9 180 / 101011.227.0 13.510.6
2017-Sep-19 12:00S 36°00' E 175°48'846.6 220 / 151011.327.0 13.5
2017-Sep-19 11:49S 36°07' E 175°51'511.8
2017-Sep-19 11:24S 36°05' E 175°46'511.9
2017-Sep-19 11:00S 36°02' E 175°41'911.9
2017-Sep-19 10:14S 35°57' E 175°32'511.7
2017-Sep-19 09:47S 35°54' E 175°26'3211.1
2017-Sep-19 06:56S 35°47' E 174°48'510.9
2017-Sep-19 06:28S 35°49' E 174°43'711.6
2017-Sep-19 05:50S 35°54' E 174°36'3 8.8
2017-Sep-19 05:30S 35°53' E 174°33'4 0.5
2017-Sep-18 22:14S 35°50' E 174°30'0 0.0
2017-Sep-17 18:00S 35°50' E 174°30'3 5.4
2017-Sep-17 17:30S 35°52' E 174°32'4 6.8
2017-Sep-17 16:59S 35°55' E 174°35'13 7.0
2017-Sep-17 15:05S 36°06' E 174°45'1 6.6
2017-Sep-17 14:57S 36°06' E 174°46'1 1.3
2017-Sep-17 14:29S 36°06' E 174°45'10 8.7
2017-Sep-17 13:22S 36°14' E 174°52'3 8.8
2017-Sep-17 13:00S 36°17' E 174°54'4 9.0
2017-Sep-17 12:30S 36°21' E 174°57'4 8.7
2017-Sep-17 12:00S 36°24' E 175°00'5 9.4
2017-Sep-17 11:30S 36°29' E 175°01'5 9.4
2017-Sep-17 11:00S 36°34' E 175°00'5 9.8
2017-Sep-17 10:30S 36°37' E 174°57'5 9.8
2017-Sep-17 10:00S 36°42' E 174°54'510.0
2017-Sep-17 09:30S 36°45' E 174°49'3 6.2
2017-Sep-17 09:00S 36°48' E 174°49'3 6.8
2017-Sep-17 08:30S 36°50' E 174°46'0 0.3
2017-Sep-17 08:00S 36°50' E 174°46'0 0.0
2017-Sep-16 19:58S 36°50' E 174°46'1 2.1
2017-Sep-16 19:30S 36°50' E 174°47'3 5.9
2017-Sep-16 19:00S 36°48' E 174°49'5 9.4
2017-Sep-16 18:30S 36°44' E 174°51'4 8.6
2017-Sep-16 18:00S 36°40' E 174°54'510.2
2017-Sep-16 17:30S 36°36' E 174°59'510.2
2017-Sep-16 17:00S 36°33' E 175°03'510.3
2017-Sep-16 16:30S 36°29' E 175°08'510.2
2017-Sep-16 16:00S 36°26' E 175°12'510.2
2017-Sep-16 15:30S 36°22' E 175°17'1910.4
2017-Sep-16 13:38S 36°27' E 175°40'511.8
2017-Sep-16 13:12S 36°29' E 175°46'211.9
2017-Sep-16 13:00S 36°29' E 175°49'7310.4
2017-Sep-16 06:00S 37°00' E 177°12'6510.8 290 / 251010.727.0 15.012.3
2017-Sep-16 00:00S 37°30' E 178°24'   300 / 451006.827.0 16.014.3

Dump ship's entire track history